Time;durP1;ratioP1;P1;durP2;ratioP2;P2;SDS_P1;SDS_P2;PMS_P1;PMS_P2;Temp;Humidity;BMP_temperature;BMP_pressure;BME280_temperature;BME280_humidity;BME280_pressure;Samples;Min_cycle;Max_cycle;Signal;HPM_P1;HPM_P2
2021/07/24 00:00:10;;;;;;;9.02;5.30;;;16.10;93.40;;;;;;5132575;27;20042;-69
2021/07/24 00:02:35;;;;;;;10.10;5.63;;;16.10;93.40;;;;;;5131192;27;20019;-68
2021/07/24 00:05:01;;;;;;;10.57;5.65;;;16.10;93.40;;;;;;5130549;27;20484;-69
2021/07/24 00:07:27;;;;;;;8.93;5.28;;;16.00;93.80;;;;;;5129068;27;20442;-69
2021/07/24 00:09:52;;;;;;;9.90;5.45;;;15.90;93.90;;;;;;5124145;27;20035;-69
2021/07/24 00:12:18;;;;;;;9.48;5.78;;;16.00;94.00;;;;;;5112343;28;20031;-68
2021/07/24 00:14:43;;;;;;;11.45;6.00;;;15.90;94.10;;;;;;5116111;27;20511;-69
2021/07/24 00:17:08;;;;;;;8.82;5.03;;;15.80;94.20;;;;;;5130272;27;20480;-69
2021/07/24 00:19:34;;;;;;;10.00;5.38;;;15.90;94.20;;;;;;5119242;27;20032;-69
2021/07/24 00:22:00;;;;;;;9.55;5.68;;;15.90;94.10;;;;;;5111614;28;20035;-69
2021/07/24 00:24:25;;;;;;;9.75;5.22;;;15.80;94.20;;;;;;5120140;27;20034;-69
2021/07/24 00:26:51;;;;;;;9.13;5.30;;;15.90;94.00;;;;;;5131960;27;20023;-69
2021/07/24 00:29:17;;;;;;;8.75;5.18;;;15.90;93.90;;;;;;5129634;27;20103;-69
2021/07/24 00:31:43;;;;;;;10.48;5.03;;;16.00;94.00;;;;;;5132404;27;20031;-69
2021/07/24 00:34:08;;;;;;;9.05;5.25;;;16.30;92.80;;;;;;5122417;27;20131;-68
2021/07/24 00:36:34;;;;;;;9.20;5.40;;;16.00;93.40;;;;;;5121373;27;20038;-68
2021/07/24 00:39:00;;;;;;;9.88;5.55;;;15.90;93.90;;;;;;5113936;27;20369;-70
2021/07/24 00:41:41;;;;;;;9.73;5.10;;;16.00;93.80;;;;;;5122369;27;20023;-71
2021/07/24 00:44:08;;;;;;;;;;;15.80;94.50;;;;;;5112779;27;20031;-70
2021/07/24 00:46:36;;;;;;;9.30;5.20;;;15.60;94.60;;;;;;5121555;27;19907;-70
2021/07/24 00:49:02;;;;;;;9.85;5.32;;;15.50;95.10;;;;;;5110163;28;20091;-70
2021/07/24 00:51:32;;;;;;;10.00;5.22;;;15.40;95.30;;;;;;5119258;27;20437;-70
2021/07/24 00:54:01;;;;;;;8.63;4.78;;;15.50;95.50;;;;;;5126427;27;20067;-71
2021/07/24 00:56:28;;;;;;;8.55;5.50;;;15.50;95.40;;;;;;5117593;27;20456;-71
2021/07/24 00:58:55;;;;;;;9.20;5.18;;;15.40;95.60;;;;;;5116122;27;20039;-70
2021/07/24 01:01:20;;;;;;;9.00;4.97;;;15.30;95.80;;;;;;5122492;27;20019;-70
2021/07/24 01:03:46;;;;;;;9.30;5.30;;;15.30;95.90;;;;;;5130927;27;20016;-70
2021/07/24 01:06:14;;;;;;;8.23;4.65;;;15.30;95.80;;;;;;5116262;28;20369;-70
2021/07/24 01:08:40;;;;;;;8.75;5.43;;;15.40;95.80;;;;;;5111293;28;20034;-70
2021/07/24 01:11:06;;;;;;;10.90;5.57;;;15.30;95.70;;;;;;5131038;28;20108;-70
2021/07/24 01:13:35;;;;;;;12.20;5.28;;;15.30;95.80;;;;;;5128410;27;20063;-70
2021/07/24 01:16:01;;;;;;;10.27;5.80;;;15.40;95.50;;;;;;5123768;28;20023;-70
2021/07/24 01:18:26;;;;;;;8.07;4.90;;;15.40;95.60;;;;;;5111390;28;20024;-72
2021/07/24 01:20:55;;;;;;;9.30;5.03;;;15.40;95.50;;;;;;5112260;28;20103;-70
2021/07/24 01:23:21;;;;;;;7.75;4.43;;;15.40;95.50;;;;;;5126718;28;20444;-71
2021/07/24 01:25:50;;;;;;;8.68;4.90;;;15.50;95.10;;;;;;5122293;28;20107;-71
2021/07/24 01:28:35;;;;;;;9.20;5.13;;;15.30;95.50;;;;;;5110474;28;20039;-70
2021/07/24 01:31:04;;;;;;;9.52;5.32;;;15.20;95.90;;;;;;5110949;27;20519;-71
2021/07/24 01:33:30;;;;;;;9.38;5.18;;;15.20;96.00;;;;;;5111325;28;20055;-70
2021/07/24 01:35:56;;;;;;;8.55;4.93;;;15.30;95.70;;;;;;5122064;28;20031;-70
2021/07/24 01:38:22;;;;;;;10.25;5.35;;;15.30;95.60;;;;;;5109863;28;20026;-71
2021/07/24 01:40:48;;;;;;;8.77;4.53;;;15.30;95.50;;;;;;5119849;28;20027;-71
2021/07/24 01:43:13;;;;;;;8.85;4.50;;;15.30;95.50;;;;;;5128359;28;20019;-70
2021/07/24 01:45:40;;;;;;;8.15;5.20;;;15.40;96.60;;;;;;5124373;28;20489;-71
2021/07/24 01:48:18;;;;;;;9.32;5.57;;;15.30;95.50;;;;;;5110887;28;20032;-71
2021/07/24 01:53:49;;;;;;;8.10;4.85;;;15.10;96.10;;;;;;5069222;28;20409;-70
2021/07/24 01:56:18;;;;;;;9.55;5.43;;;15.10;96.20;;;;;;5106434;28;20044;-70
2021/07/24 01:58:43;;;;;;;8.88;5.10;;;15.10;96.20;;;;;;5110356;28;20419;-71
2021/07/24 02:01:11;;;;;;;10.27;5.53;;;15.00;96.30;;;;;;5110971;28;20110;-70
2021/07/24 02:03:50;;;;;;;8.32;5.00;;;14.90;96.60;;;;;;5120340;28;20057;-71
2021/07/24 02:06:17;;;;;;;10.07;5.45;;;14.80;97.00;;;;;;5128859;28;20683;-70
2021/07/24 02:08:46;;;;;;;9.60;5.40;;;14.70;97.10;;;;;;5121574;27;20102;-70
2021/07/24 02:11:13;;;;;;;11.95;5.18;;;14.90;96.90;;;;;;5112194;27;20031;-70
2021/07/24 02:13:38;;;;;;;8.93;4.93;;;14.90;96.60;;;;;;5120840;27;20489;-71
2021/07/24 02:16:06;;;;;;;10.20;5.78;;;14.90;96.60;;;;;;5127021;27;20088;-71
2021/07/24 02:18:33;;;;;;;10.98;5.65;;;14.90;96.70;;;;;;5122772;27;20454;-70
2021/07/24 02:21:00;;;;;;;8.25;5.10;;;14.80;96.80;;;;;;5114095;28;20492;-70
2021/07/24 02:23:25;;;;;;;9.48;4.93;;;14.70;97.00;;;;;;5118703;27;20392;-71
2021/07/24 02:25:51;;;;;;;10.15;5.40;;;14.80;97.00;;;;;;5124605;27;20032;-68
2021/07/24 02:28:17;;;;;;;10.38;5.65;;;14.80;97.10;;;;;;5113646;28;20036;-70
2021/07/24 02:30:43;;;;;;;8.55;5.15;;;14.70;97.30;;;;;;5114042;27;20030;-71
2021/07/24 02:33:08;;;;;;;8.27;5.43;;;14.80;97.10;;;;;;5114263;27;20038;-71
2021/07/24 02:35:34;;;;;;;8.27;4.72;;;14.70;97.10;;;;;;5128961;27;20476;-70
2021/07/24 02:38:00;;;;;;;8.88;5.45;;;14.70;97.30;;;;;;5134420;27;20023;-71
2021/07/24 02:40:25;;;;;;;10.52;5.43;;;14.70;97.20;;;;;;5131308;27;20504;-70
2021/07/24 02:42:51;;;;;;;9.82;5.68;;;14.70;97.20;;;;;;5126290;27;20076;-71
2021/07/24 02:45:16;;;;;;;10.88;5.80;;;14.70;97.50;;;;;;5133662;27;20066;-71
2021/07/24 02:47:42;;;;;;;10.15;5.25;;;14.70;97.60;;;;;;5125441;27;20656;-71
2021/07/24 02:50:08;;;;;;;11.02;6.07;;;14.70;97.70;;;;;;5113518;28;20084;-71
2021/07/24 02:52:34;;;;;;;8.63;5.22;;;14.60;97.80;;;;;;5115656;27;20032;-70
2021/07/24 02:54:59;;;;;;;8.75;5.03;;;14.60;97.60;;;;;;5119430;27;20447;-72
2021/07/24 02:57:25;;;;;;;10.05;5.45;;;14.60;97.80;;;;;;5114359;27;20062;-71
2021/07/24 02:59:50;;;;;;;8.63;4.82;;;14.60;97.80;;;;;;5114061;27;20508;-72
2021/07/24 03:02:17;;;;;;;10.35;5.68;;;14.60;97.50;;;;;;5130652;27;20106;-72
2021/07/24 03:04:43;;;;;;;10.80;5.43;;;14.70;97.60;;;;;;5113622;27;20051;-72
2021/07/24 03:07:09;;;;;;;10.20;5.82;;;14.70;97.60;;;;;;5112223;27;20062;-72
2021/07/24 03:09:35;;;;;;;8.88;5.45;;;14.70;97.40;;;;;;5113285;28;20035;-71
2021/07/24 03:12:00;;;;;;;9.95;5.78;;;14.70;97.30;;;;;;5113156;28;20389;-71
2021/07/24 03:14:26;;;;;;;9.73;5.63;;;14.70;97.10;;;;;;5116398;27;20038;-71
2021/07/24 03:16:52;;;;;;;9.55;5.07;;;14.80;96.70;;;;;;5127885;27;20027;-71
2021/07/24 03:19:17;;;;;;;9.15;5.45;;;15.00;95.80;;;;;;5132680;27;20035;-71
2021/07/24 03:21:43;;;;;;;8.80;5.68;;;14.90;96.30;;;;;;5132342;27;20038;-72
2021/07/24 03:24:08;;;;;;;10.77;5.70;;;14.70;96.60;;;;;;5133451;27;20370;-71
2021/07/24 03:26:34;;;;;;;9.02;5.22;;;14.60;97.20;;;;;;5132297;27;20043;-71
2021/07/24 03:28:59;;;;;;;9.30;5.63;;;14.40;97.70;;;;;;5132675;27;20080;-71
2021/07/24 03:31:25;;;;;;;8.82;5.53;;;14.30;97.80;;;;;;5126118;27;20012;-71
2021/07/24 03:33:50;;;;;;;10.15;5.60;;;14.20;98.40;;;;;;5112681;27;20434;-71
2021/07/24 03:36:16;;;;;;;9.57;5.63;;;14.30;98.60;;;;;;5113642;27;20023;-71
2021/07/24 03:38:41;;;;;;;10.23;6.03;;;14.30;98.50;;;;;;5111535;27;20489;-71
2021/07/24 03:41:07;;;;;;;10.38;5.75;;;14.50;98.10;;;;;;5113588;27;20054;-72
2021/07/24 03:43:32;;;;;;;9.00;5.25;;;14.60;97.70;;;;;;5114197;27;20051;-71
2021/07/24 03:45:58;;;;;;;9.45;5.65;;;14.50;97.60;;;;;;5111642;28;20111;-71
2021/07/24 03:48:24;;;;;;;9.25;5.57;;;14.50;97.80;;;;;;5112370;28;20039;-71
2021/07/24 03:50:49;;;;;;;10.00;6.15;;;14.50;97.80;;;;;;5129942;27;20034;-71
2021/07/24 03:53:15;;;;;;;9.38;5.80;;;14.50;97.80;;;;;;5130163;27;20064;-72
2021/07/24 03:55:40;;;;;;;11.50;6.80;;;14.50;97.90;;;;;;5112012;27;20072;-71
2021/07/24 03:58:06;;;;;;;9.90;5.78;;;14.50;98.00;;;;;;5111279;27;20031;-71
2021/07/24 04:00:41;;;;;;;10.82;5.82;;;14.50;98.10;;;;;;5112483;27;20023;-71
2021/07/24 04:03:06;;;;;;;12.25;6.18;;;14.50;98.10;;;;;;5112159;28;20016;-71
2021/07/24 04:05:38;;;;;;;10.93;6.15;;;14.40;98.00;;;;;;5131085;27;20500;-72
2021/07/24 04:08:04;;;;;;;9.68;5.80;;;14.40;97.90;;;;;;5133050;27;20023;-71
2021/07/24 04:10:30;;;;;;;10.45;5.80;;;14.40;98.00;;;;;;5116228;27;20111;-71
2021/07/24 04:12:56;;;;;;;9.35;5.45;;;14.40;98.20;;;;;;5122209;27;20106;-71
2021/07/24 04:15:21;;;;;;;11.00;5.93;;;14.40;98.20;;;;;;5134984;27;20046;-71
2021/07/24 04:17:48;;;;;;;10.93;6.05;;;14.40;98.30;;;;;;5143198;27;20042;-71
2021/07/24 04:20:15;;;;;;;10.75;5.80;;;14.40;98.00;;;;;;5123348;27;20020;-71
2021/07/24 04:22:41;;;;;;;9.93;5.78;;;14.40;98.30;;;;;;5111377;27;20504;-71
2021/07/24 04:25:07;;;;;;;9.73;6.32;;;14.20;98.60;;;;;;5124642;27;20028;-69
2021/07/24 04:27:33;;;;;;;9.77;5.20;;;14.30;98.40;;;;;;5139739;27;20395;-69
2021/07/24 04:29:58;;;;;;;10.90;6.00;;;14.30;98.60;;;;;;5111871;28;20435;-69
2021/07/24 04:32:24;;;;;;;12.15;6.07;;;14.30;98.50;;;;;;5111675;28;20031;-71
2021/07/24 04:34:50;;;;;;;9.93;5.68;;;14.20;98.80;;;;;;5127467;27;20077;-69
2021/07/24 04:37:15;;;;;;;12.02;6.18;;;14.20;99.00;;;;;;5132170;27;20065;-69
2021/07/24 04:39:41;;;;;;;12.48;5.80;;;14.40;98.80;;;;;;5114064;27;20024;-70
2021/07/24 04:42:06;;;;;;;13.48;6.00;;;14.40;98.80;;;;;;5110180;28;20396;-70
2021/07/24 04:44:32;;;;;;;10.23;5.90;;;14.50;98.70;;;;;;5125436;27;20122;-69
2021/07/24 04:46:57;;;;;;;11.90;6.05;;;14.50;98.60;;;;;;5130871;27;20027;-70
2021/07/24 04:49:23;;;;;;;11.02;6.10;;;14.60;98.70;;;;;;5122342;27;20031;-70
2021/07/24 04:51:49;;;;;;;10.90;6.22;;;14.80;98.20;;;;;;5117614;27;20034;-70
2021/07/24 04:54:15;;;;;;;10.45;6.20;;;14.80;98.10;;;;;;5111589;28;20027;-70
2021/07/24 04:56:40;;;;;;;10.10;6.43;;;15.00;97.90;;;;;;5123309;27;20629;-72
2021/07/24 04:59:07;;;;;;;8.70;5.63;;;15.00;98.20;;;;;;5130755;27;20026;-71
2021/07/24 05:01:34;;;;;;;9.50;5.53;;;15.10;97.20;;;;;;5117719;27;20028;-71
2021/07/24 05:04:01;;;;;;;11.02;6.43;;;15.20;97.00;;;;;;5122611;27;20043;-71
2021/07/24 05:06:28;;;;;;;11.43;6.03;;;15.40;97.60;;;;;;5131869;27;20027;-71
2021/07/24 05:08:54;;;;;;;11.40;6.20;;;15.50;96.50;;;;;;5111994;28;20054;-71
2021/07/24 05:11:19;;;;;;;10.15;6.20;;;15.50;95.60;;;;;;5112022;27;20484;-72
2021/07/24 05:13:46;;;;;;;11.15;6.10;;;15.60;96.60;;;;;;5118935;28;20038;-73
2021/07/24 05:16:12;;;;;;;9.93;5.70;;;15.50;96.30;;;;;;5109918;28;20035;-71
2021/07/24 05:18:37;;;;;;;10.90;6.28;;;15.70;95.50;;;;;;5120428;28;20031;-71
2021/07/24 05:21:03;;;;;;;12.52;6.50;;;15.90;96.00;;;;;;5112381;28;20062;-71
2021/07/24 05:23:29;;;;;;;13.82;5.97;;;15.90;95.60;;;;;;5121717;28;20393;-71
2021/07/24 05:25:55;;;;;;;11.23;6.22;;;16.10;94.90;;;;;;5110316;28;20019;-71
2021/07/24 05:28:20;;;;;;;10.95;5.70;;;16.40;94.70;;;;;;5110453;28;20027;-71
2021/07/24 05:30:46;;;;;;;9.15;5.68;;;16.50;94.80;;;;;;5112206;28;20113;-71
2021/07/24 05:33:11;;;;;;;10.35;5.60;;;17.00;92.50;;;;;;5120761;28;20030;-71
2021/07/24 05:35:37;;;;;;;9.27;6.03;;;17.20;92.10;;;;;;5131326;28;20053;-72
2021/07/24 05:38:02;;;;;;;9.50;5.03;;;17.40;91.60;;;;;;5117308;28;20047;-71
2021/07/24 05:40:28;;;;;;;10.63;5.80;;;17.60;91.20;;;;;;5104746;28;20023;-72
2021/07/24 05:42:59;;;;;;;8.93;5.43;;;17.50;91.70;;;;;;5113523;27;20020;-72
2021/07/24 05:45:25;;;;;;;11.27;6.38;;;17.20;92.70;;;;;;5108441;27;20420;-71
2021/07/24 05:47:50;;;;;;;10.27;5.60;;;17.70;91.70;;;;;;5111398;27;20024;-72
2021/07/24 05:50:16;;;;;;;10.10;5.53;;;17.80;90.80;;;;;;5117699;27;20019;-72
2021/07/24 05:52:41;;;;;;;10.13;5.35;;;17.80;90.90;;;;;;5129317;27;20668;-71
2021/07/24 05:55:07;;;;;;;9.68;5.53;;;18.00;90.00;;;;;;5132504;27;20829;-72
2021/07/24 05:57:36;;;;;;;9.55;4.53;;;18.20;89.30;;;;;;5125756;27;20122;-72
2021/07/24 06:00:03;;;;;;;9.07;5.57;;;18.50;88.10;;;;;;5123278;27;20435;-71
2021/07/24 06:02:29;;;;;;;9.70;5.18;;;18.60;86.70;;;;;;5108844;27;20019;-71
2021/07/24 06:04:54;;;;;;;8.70;5.18;;;18.50;88.00;;;;;;5115081;27;20038;-72
2021/07/24 06:07:20;;;;;;;9.35;5.22;;;18.50;88.00;;;;;;5122890;27;20088;-71
2021/07/24 06:09:45;;;;;;;9.63;4.75;;;18.80;86.20;;;;;;5126772;27;20118;-71
2021/07/24 06:12:11;;;;;;;8.25;4.72;;;19.00;84.20;;;;;;5129661;27;20035;-71
2021/07/24 06:14:37;;;;;;;8.00;5.22;;;19.40;82.20;;;;;;5127723;27;20035;-74
2021/07/24 06:17:03;;;;;;;9.18;4.75;;;19.70;80.40;;;;;;5123079;27;20028;-72
2021/07/24 06:19:29;;;;;;;8.15;4.40;;;20.00;78.60;;;;;;5115515;27;20065;-71
2021/07/24 06:21:54;;;;;;;9.25;5.43;;;20.10;78.30;;;;;;5124446;27;20520;-71
2021/07/24 06:24:20;;;;;;;9.15;5.38;;;20.10;78.20;;;;;;5117283;27;20026;-70
2021/07/24 06:26:46;;;;;;;11.35;5.53;;;19.80;79.50;;;;;;5127333;27;20739;-67
2021/07/24 06:29:11;;;;;;;8.85;5.03;;;19.90;79.10;;;;;;5112288;27;20036;-70
2021/07/24 06:31:39;;;;;;;9.68;4.70;;;20.00;78.60;;;;;;5125729;27;20378;-68
2021/07/24 06:34:05;;;;;;;9.32;5.07;;;20.20;78.40;;;;;;5115345;27;20047;-69
2021/07/24 06:36:31;;;;;;;8.30;5.25;;;20.20;78.10;;;;;;5109817;27;20482;-67
2021/07/24 06:38:56;;;;;;;9.32;4.30;;;20.70;76.90;;;;;;5107690;28;20054;-74
2021/07/24 06:41:23;;;;;;;8.10;4.93;;;20.90;74.60;;;;;;5106709;28;20097;-69
2021/07/24 06:43:48;;;;;;;9.23;4.32;;;21.00;73.60;;;;;;5120173;27;20524;-69
2021/07/24 06:46:16;;;;;;;10.07;5.07;;;21.10;73.50;;;;;;5119532;27;20106;-69
2021/07/24 06:48:42;;;;;;;9.02;4.68;;;20.90;74.10;;;;;;5125051;27;20525;-69
2021/07/24 06:51:08;;;;;;;8.60;4.47;;;21.30;72.50;;;;;;5125201;27;20031;-69
2021/07/24 06:53:35;;;;;;;8.85;4.90;;;21.60;72.40;;;;;;5118590;27;20040;-68
2021/07/24 06:56:02;;;;;;;8.32;4.05;;;21.90;72.10;;;;;;5112851;27;20015;-68
2021/07/24 06:58:28;;;;;;;7.32;4.22;;;21.80;69.90;;;;;;5123116;27;20027;-68
2021/07/24 07:00:53;;;;;;;8.80;4.60;;;21.50;71.20;;;;;;5112119;27;20408;-68
2021/07/24 07:03:19;;;;;;;9.60;4.32;;;21.80;70.70;;;;;;5107544;28;20015;-69
2021/07/24 07:05:44;;;;;;;10.07;4.80;;;22.00;69.10;;;;;;5118122;27;20517;-69
2021/07/24 07:08:10;;;;;;;7.47;4.15;;;22.00;70.00;;;;;;5121580;27;20089;-69
2021/07/24 07:10:35;;;;;;;8.30;4.63;;;22.10;69.70;;;;;;5108183;27;20038;-68
2021/07/24 07:13:01;;;;;;;9.93;4.47;;;22.10;68.80;;;;;;5107439;27;20032;-69
2021/07/24 07:15:28;;;;;;;7.68;4.40;;;22.20;69.00;;;;;;5106518;28;20032;-68
2021/07/24 07:17:54;;;;;;;8.95;4.32;;;22.40;67.50;;;;;;5115823;27;20051;-69
2021/07/24 07:20:20;;;;;;;8.80;4.53;;;22.10;68.00;;;;;;5112661;27;20484;-72
2021/07/24 07:22:45;;;;;;;10.02;5.10;;;22.20;67.10;;;;;;5115869;27;20045;-70
2021/07/24 07:25:11;;;;;;;9.18;5.00;;;22.30;66.90;;;;;;5126750;27;20035;-70
2021/07/24 07:27:41;;;;;;;8.35;5.32;;;22.50;67.00;;;;;;5115047;27;20661;-71
2021/07/24 07:30:08;;;;;;;10.18;4.15;;;22.90;66.80;;;;;;5125302;27;20067;-69
2021/07/24 07:32:34;;;;;;;9.57;4.93;;;22.90;66.10;;;;;;5120090;27;20036;-73
2021/07/24 07:34:59;;;;;;;8.23;5.45;;;23.00;65.50;;;;;;5106241;28;20396;-69
2021/07/24 07:37:25;;;;;;;9.18;4.78;;;23.10;65.20;;;;;;5105643;28;20027;-68
2021/07/24 07:39:50;;;;;;;9.63;5.50;;;23.10;65.10;;;;;;5106040;28;20026;-70
2021/07/24 07:42:16;;;;;;;8.57;5.70;;;23.60;65.00;;;;;;5106594;28;20408;-69
2021/07/24 07:44:42;;;;;;;10.20;5.35;;;23.50;63.40;;;;;;5108968;27;20036;-69
2021/07/24 07:47:07;;;;;;;8.93;5.13;;;23.30;64.50;;;;;;5120013;27;20027;-69
2021/07/24 07:49:33;;;;;;;9.85;5.03;;;23.30;63.90;;;;;;5126995;27;20031;-68
2021/07/24 07:51:58;;;;;;;8.10;5.05;;;23.60;63.20;;;;;;5115308;27;20736;-68
2021/07/24 07:54:24;;;;;;;7.88;4.93;;;23.30;62.60;;;;;;5113829;27;20065;-72
2021/07/24 07:56:49;;;;;;;10.27;5.50;;;23.80;63.10;;;;;;5105587;27;20016;-68
2021/07/24 07:59:15;;;;;;;11.20;5.50;;;24.10;62.70;;;;;;5112731;27;20185;-69
2021/07/24 08:01:41;;;;;;;10.35;5.40;;;23.80;60.90;;;;;;5107173;27;20028;-70
2021/07/24 08:04:06;;;;;;;10.55;5.30;;;24.00;60.90;;;;;;5106562;27;20115;-72
2021/07/24 08:06:31;;;;;;;8.57;5.00;;;23.80;61.90;;;;;;5106646;27;20034;-73
2021/07/24 08:08:57;;;;;;;8.82;5.22;;;24.10;62.90;;;;;;5109938;28;20096;-72
2021/07/24 08:11:23;;;;;;;10.38;5.03;;;24.20;63.20;;;;;;5109214;27;20110;-75
2021/07/24 08:13:48;;;;;;;10.40;5.50;;;24.40;60.30;;;;;;5118845;27;20047;-72
2021/07/24 08:16:15;;;;;;;9.00;5.38;;;24.60;60.10;;;;;;5106288;27;20962;-74
2021/07/24 08:18:44;;;;;;;9.07;5.28;;;24.30;61.50;;;;;;5107201;27;20048;-74
2021/07/24 08:21:10;;;;;;;10.95;5.63;;;24.50;61.80;;;;;;5106205;28;20030;-73
2021/07/24 08:23:36;;;;;;;8.05;5.40;;;24.60;60.60;;;;;;5119529;27;20023;-72
2021/07/24 08:26:01;;;;;;;11.30;6.05;;;25.10;59.50;;;;;;5123731;27;20027;-74
2021/07/24 08:28:28;;;;;;;8.60;5.75;;;24.90;57.40;;;;;;5106715;28;20124;-75
2021/07/24 08:30:54;;;;;;;11.20;6.30;;;25.10;58.80;;;;;;5111305;27;20077;-69
2021/07/24 08:33:19;;;;;;;10.73;6.05;;;25.60;57.90;;;;;;5106757;27;20047;-69
2021/07/24 08:35:45;;;;;;;10.93;5.97;;;25.60;59.30;;;;;;5107557;27;20032;-70
2021/07/24 08:38:10;;;;;;;11.00;6.13;;;25.00;58.20;;;;;;5114047;27;20015;-69
2021/07/24 08:40:37;;;;;;;11.88;6.03;;;24.80;58.50;;;;;;5108774;27;20123;-69
2021/07/24 08:43:05;;;;;;;10.68;6.30;;;25.00;59.90;;;;;;5103509;27;20019;-69
2021/07/24 08:45:31;;;;;;;13.43;6.63;;;25.10;58.30;;;;;;5102831;27;20030;-68
2021/07/24 08:48:00;;;;;;;15.48;6.30;;;25.20;58.40;;;;;;5104577;28;20036;-69
2021/07/24 08:50:26;;;;;;;10.68;6.57;;;25.20;59.70;;;;;;5103749;28;20031;-69
2021/07/24 08:53:00;;;;;;;10.18;6.22;;;24.80;58.50;;;;;;5109316;27;20552;-71
2021/07/24 08:55:26;;;;;;;12.77;6.57;;;25.00;58.80;;;;;;5104472;27;20038;-70
2021/07/24 08:57:53;;;;;;;11.85;6.97;;;25.10;58.60;;;;;;5112423;27;20260;-67
2021/07/24 09:00:21;;;;;;;13.25;6.53;;;24.90;57.80;;;;;;5144476;27;20023;-69
2021/07/24 09:02:47;;;;;;;11.77;6.75;;;24.40;58.70;;;;;;5146345;27;20018;-68
2021/07/24 09:05:14;;;;;;;11.60;6.15;;;24.40;60.00;;;;;;5146015;27;20040;-67
2021/07/24 09:07:50;;;;;;;12.48;6.53;;;24.60;60.30;;;;;;5145842;27;20023;-66
2021/07/24 09:10:18;;;;;;;11.90;6.40;;;24.40;60.80;;;;;;5145992;27;20039;-65
2021/07/24 09:12:46;;;;;;;10.60;6.88;;;24.60;61.00;;;;;;5144866;27;20027;-67
2021/07/24 09:15:14;;;;;;;11.68;6.60;;;24.60;59.80;;;;;;5145640;27;20510;-68
2021/07/24 09:17:40;;;;;;;11.07;6.78;;;24.50;60.30;;;;;;5149242;27;20058;-68
2021/07/24 09:20:07;;;;;;;10.35;6.40;;;24.50;61.10;;;;;;5153173;27;20269;-67
2021/07/24 09:22:38;;;;;;;10.93;6.68;;;24.90;60.40;;;;;;5151386;27;20019;-67
2021/07/24 09:25:21;;;;;;;10.63;6.65;;;25.20;61.10;;;;;;5151483;27;20026;-68
2021/07/24 09:27:51;;;;;;;10.20;6.32;;;25.20;60.20;;;;;;5152882;27;20129;-67
2021/07/24 09:30:27;;;;;;;13.30;7.18;;;25.40;60.20;;;;;;5148564;27;20031;-66
2021/07/24 09:33:09;;;;;;;11.77;6.18;;;25.20;59.40;;;;;;5138208;27;20055;-67
2021/07/24 09:35:35;;;;;;;10.57;6.70;;;25.50;60.00;;;;;;5143561;27;20042;-69
2021/07/24 09:38:01;;;;;;;10.50;6.63;;;25.90;59.10;;;;;;5129929;27;20027;-68
2021/07/24 09:40:27;;;;;;;9.50;6.40;;;26.50;60.00;;;;;;5126630;27;20029;-67
2021/07/24 09:42:52;;;;;;;11.57;6.57;;;25.90;57.40;;;;;;5120037;27;20126;-67
2021/07/24 09:45:20;;;;;;;12.93;6.68;;;26.00;60.00;;;;;;5111362;27;20066;-68
2021/07/24 09:47:45;;;;;;;10.32;6.95;;;26.10;57.50;;;;;;5109714;27;20085;-66
2021/07/24 09:50:16;;;;;;;11.40;6.70;;;26.50;57.20;;;;;;5109475;27;20027;-66
2021/07/24 09:52:51;;;;;;;11.30;7.20;;;26.70;56.90;;;;;;5110307;27;20098;-65
2021/07/24 09:55:19;;;;;;;17.25;6.30;;;26.90;58.20;;;;;;5109578;27;20125;-65
2021/07/24 09:57:45;;;;;;;10.45;6.25;;;26.10;58.50;;;;;;5130931;27;20420;-65
2021/07/24 10:00:24;;;;;;;11.90;6.70;;;26.30;58.50;;;;;;5126604;27;20034;-67
2021/07/24 10:03:06;;;;;;;10.63;6.47;;;25.30;60.00;;;;;;5118471;27;20032;-66
2021/07/24 10:05:40;;;;;;;11.23;6.85;;;24.20;65.00;;;;;;5121726;27;20527;-66
2021/07/24 10:08:15;;;;;;;9.48;5.75;;;26.50;57.80;;;;;;5110713;27;20104;-66
2021/07/24 10:10:49;;;;;;;10.50;5.72;;;26.20;60.10;;;;;;5109198;27;20043;-66
2021/07/24 10:13:15;;;;;;;10.27;6.68;;;27.00;57.70;;;;;;5110755;28;20024;-66
2021/07/24 10:15:43;;;;;;;10.68;6.72;;;27.40;58.20;;;;;;5111216;28;20034;-68
2021/07/24 10:18:10;;;;;;;9.95;6.47;;;27.20;56.20;;;;;;5111657;27;20027;-66
2021/07/24 10:20:47;;;;;;;11.18;6.32;;;26.10;58.90;;;;;;5110809;28;20391;-67
2021/07/24 10:23:13;;;;;;;13.05;6.90;;;26.70;57.40;;;;;;5111120;28;20519;-66
2021/07/24 10:25:50;;;;;;;10.05;6.80;;;25.50;59.90;;;;;;5111435;28;20617;-68
2021/07/24 10:28:33;;;;;;;13.85;6.78;;;26.20;59.00;;;;;;5107554;27;20035;-67
2021/07/24 10:31:07;;;;;;;12.32;7.03;;;25.60;62.00;;;;;;5108094;28;20027;-66
2021/07/24 10:33:33;;;;;;;11.65;6.38;;;24.40;67.30;;;;;;5106994;28;20035;-65
2021/07/24 10:36:16;;;;;;;12.65;6.90;;;24.00;68.60;;;;;;5107255;28;20758;-66
2021/07/24 10:38:59;;;;;;;11.38;6.70;;;23.90;66.90;;;;;;5107907;28;20061;-67
2021/07/24 10:41:25;;;;;;;15.15;6.75;;;24.50;67.00;;;;;;5106339;28;20036;-66
2021/07/24 10:44:01;;;;;;;12.45;7.55;;;25.30;62.90;;;;;;5107575;28;20023;-66
2021/07/24 10:46:44;;;;;;;10.85;7.00;;;26.50;57.20;;;;;;5107190;28;20107;-66
2021/07/24 10:49:21;;;;;;;9.07;6.38;;;27.10;56.10;;;;;;5107973;28;20493;-66
2021/07/24 10:52:07;;;;;;;10.93;6.90;;;27.40;58.60;;;;;;5107460;28;20020;-66
2021/07/24 10:54:53;;;;;;;10.57;6.78;;;25.90;59.80;;;;;;5112557;27;20023;-66
2021/07/24 10:57:47;;;;;;;12.52;6.68;;;24.40;67.40;;;;;;5098929;27;20031;-65
2021/07/24 11:00:18;;;;;;;14.48;7.38;;;26.90;57.80;;;;;;5107285;28;20024;-67
2021/07/24 11:02:46;;;;;;;11.95;7.25;;;25.60;61.40;;;;;;5118039;27;20023;-70
2021/07/24 11:05:24;;;;;;;18.13;8.18;;;24.70;66.10;;;;;;5111988;27;20060;-68
2021/07/24 11:07:50;;;;;;;17.33;7.53;;;24.00;68.70;;;;;;5113500;27;20353;-72
2021/07/24 11:10:16;;;;;;;14.45;7.05;;;24.20;68.20;;;;;;5120543;27;20624;-68
2021/07/24 11:12:42;;;;;;;12.90;7.22;;;25.20;64.50;;;;;;5121355;27;20032;-70
2021/07/24 11:15:09;;;;;;;11.63;6.70;;;24.00;68.70;;;;;;5126686;27;20023;-71
2021/07/24 11:17:35;;;;;;;12.30;7.20;;;25.00;67.80;;;;;;5122490;27;20438;-69
2021/07/24 11:20:01;;;;;;;11.52;7.38;;;27.30;58.00;;;;;;5121139;27;20057;-69
2021/07/24 11:22:27;;;;;;;16.08;7.85;;;25.80;62.20;;;;;;5123116;27;20023;-70
2021/07/24 11:24:53;;;;;;;11.45;7.00;;;26.60;59.50;;;;;;5127019;27;20369;-66
2021/07/24 11:27:25;;;;;;;12.20;7.50;;;26.40;61.10;;;;;;5121064;27;20122;-67
2021/07/24 11:29:50;;;;;;;;;;;27.00;58.50;;;;;;5124638;27;20035;-68
2021/07/24 11:32:25;;;;;;;12.05;7.00;;;25.10;64.20;;;;;;5116819;27;19912;-65
2021/07/24 11:34:58;;;;;;;12.02;7.43;;;24.90;67.20;;;;;;5109323;27;20038;-66
2021/07/24 11:37:47;;;;;;;11.15;7.00;;;26.60;59.00;;;;;;5125785;27;20045;-62
2021/07/24 11:40:14;;;;;;;12.98;7.10;;;27.20;58.30;;;;;;5131992;27;20439;-62
2021/07/24 11:42:40;;;;;;;10.45;7.43;;;27.10;59.90;;;;;;5124666;27;20031;-62
2021/07/24 11:45:06;;;;;;;11.13;7.63;;;27.10;55.90;;;;;;5120556;27;20394;-64
2021/07/24 11:47:32;;;;;;;11.43;7.15;;;26.80;56.70;;;;;;5114027;27;20489;-65
2021/07/24 11:50:17;;;;;;;11.68;7.40;;;26.90;57.80;;;;;;5132162;27;20042;-67
2021/07/24 11:52:47;;;;;;;12.13;7.35;;;26.90;57.20;;;;;;5131474;27;20392;-66
2021/07/24 11:55:12;;;;;;;11.48;7.53;;;26.90;58.60;;;;;;5123002;27;20066;-69
2021/07/24 11:57:41;;;;;;;13.30;7.88;;;26.90;58.90;;;;;;5120177;27;20047;-64
2021/07/24 12:00:07;;;;;;;11.88;7.72;;;27.50;58.40;;;;;;5117731;27;20118;-65
2021/07/24 12:02:33;;;;;;;13.13;8.65;;;27.50;55.20;;;;;;5118962;27;20400;-68
2021/07/24 12:04:58;;;;;;;13.00;8.15;;;27.40;56.40;;;;;;5119423;27;20035;-66
2021/07/24 12:07:24;;;;;;;13.52;8.30;;;27.50;57.90;;;;;;5117571;27;20023;-68
2021/07/24 12:09:52;;;;;;;13.10;7.68;;;27.20;58.00;;;;;;5129110;27;20035;-71
2021/07/24 12:12:23;;;;;;;11.60;7.63;;;26.80;60.10;;;;;;5128123;27;20023;-68
2021/07/24 12:14:55;;;;;;;11.98;7.57;;;27.00;58.30;;;;;;5118530;27;20484;-67
2021/07/24 12:17:25;;;;;;;12.60;8.05;;;27.20;57.60;;;;;;5124463;27;20104;-68
2021/07/24 12:19:51;;;;;;;11.65;7.95;;;27.10;56.90;;;;;;5121905;27;20015;-66
2021/07/24 12:22:21;;;;;;;11.27;7.60;;;27.40;57.90;;;;;;5118700;27;20385;-68
2021/07/24 12:24:51;;;;;;;10.67;7.43;;;27.00;57.90;;;;;;5124100;27;20028;-68
2021/07/24 12:27:18;;;;;;;13.68;7.88;;;27.50;59.30;;;;;;5114036;27;20599;-69
2021/07/24 12:29:54;;;;;;;14.20;8.48;;;26.30;60.40;;;;;;5115413;27;20031;-66
2021/07/24 12:32:21;;;;;;;10.90;7.68;;;25.60;66.60;;;;;;5128337;27;20105;-65
2021/07/24 12:34:48;;;;;;;12.05;8.50;;;27.50;59.00;;;;;;5131214;27;20095;-66
2021/07/24 12:37:30;;;;;;;12.65;8.20;;;28.20;56.00;;;;;;5125722;27;20024;-65
2021/07/24 12:39:56;;;;;;;12.45;7.55;;;27.00;59.20;;;;;;5112054;28;20610;-66
2021/07/24 12:42:34;;;;;;;12.93;7.95;;;27.50;58.40;;;;;;5112002;27;20102;-66
2021/07/24 12:44:59;;;;;;;11.75;8.15;;;27.70;58.00;;;;;;5111672;28;20028;-65